AirNav   Air Wisconsin Up To $57,000 Bonus
 
 934 users online  

CO93 Perry Park Airport
Larkspur, Colorado, USA

GOING TO LARKSPUR?


FAA INFORMATION EFFECTIVE 04 NOVEMBER 2021

Location

FAA Identifier: CO93
Lat/Long: 39-14-59.9600N 104-53-26.9300W
39-14.999333N 104-53.448833W
39.2499889,-104.8908139
(estimated)
Elevation: 6700 ft. / 2042 m (estimated)
Variation: 11E (1990)
From city: 1 mile N of LARKSPUR, CO
Time zone: UTC -6 (UTC -7 during Standard Time)
Zip code: 80118

Airport Operations

Airport use: Private use. Permission required prior to landing
Activation date: 12/1992
Control tower: no
ARTCC: DENVER CENTER
FSS: DENVER FLIGHT SERVICE STATION
Attendance: UNATNDD
Wind indicator: yes
Segmented circle: no

Airport Communications

WX ASOS at APA (19 nm N): PHONE 720-873-2799

Nearby radio navigation aids

VOR radial/distance  VOR name  Freq  Var
BRKr319/21.9BLACK FOREST VOR/DME112.5008E
FQFr194/29.2FALCON VORTAC116.3011E
FCSr338/34.7BUTTS VOR/DME108.8012E
DENr190/35.4DENVER VOR/DME117.9008E

 
NDB name  Hdg/Dist  Freq  Var  ID
IRONHORSE341/34.933508EIHS .. .... ...

Airport Services

Runway Information

Runway 16/34

Dimensions: 5700 x 40 ft. / 1737 x 12 m
RWY 16/34 3000 FT CONC ON RWY 34 END, REMAINDER GRVL.
Surface: concrete/gravel, in fair condition
RUNWAY 16  RUNWAY 34
Traffic pattern: leftleft

Airport Ownership and Management from official FAA records

Ownership: Privately-owned
Owner: TERRY MANDEL
PO BOX 98
LARKSPUR, CO 80118-0098
Phone 719-338-2401
Manager: TERRY AND MARY MANDEL
PO BOX 98
LARKSPUR, CO 80118
Phone 719-337-4053

Airport Operational Statistics

Aircraft based on the field: 4
Single engine airplanes: 2
Multi engine airplanes: 2
    

Additional Remarks

FOR CD CTC DENVER APCH AT 303-342-1916.

Instrument Procedures

There are no published instrument procedures at CO93.

Some nearby airports with instrument procedures:

KAPA - Centennial Airport (19 nm N)
KBKF - Buckley Air Force Base (28 nm N)
KCOS - City of Colorado Springs Municipal Airport (28 nm S)
KCFO - Colorado Air and Space Port Airport (36 nm NE)
KDEN - Denver International Airport (38 nm N)
 
Loc | Ops | Rwys | IFR | FBO | Links
Com | Nav | Svcs | Stats | Notes

AirBoss

 
Area around CO93 (Perry Park Airport)
 
Road maps at: MapQuest Bing Google
 
Aerial photo
WARNING: Photo may not be current or correct
Aerial photo of CO93 (Perry Park Airport)
Photo taken 17-Mar-2016
looking southwest.

Do you have a better or more recent aerial photo of Perry Park Airport that you would like to share? If so, please send us your photo.

 
Sectional chart

 
Airport distance calculator
Flying to Perry Park Airport? Find the distance to fly.

From to CO93

Sunrise and sunset
Times for 30-Nov-2021
 Local
(UTC-7)
 Zulu
(UTC)
Morning civil twilight06:3113:31
Sunrise07:0014:00
Sunset16:3623:36
Evening civil twilight17:0600:06

Current date and time
Zulu (UTC)  01-Dec-2021 04:48:33
Local (UTC-7)  30-Nov-2021 21:48:33
 
METAR
KMNH 
12nm E 
010435Z AUTO 34008KT 10SM CLR 05/M13 A3017 RMK AO2
KAFF 
17nm S 
010358Z AUTO 32004KT 10SM CLR 02/M07 A3009 RMK AO2 SLP186 T00151073
KAPA 
19nm N 
010353Z 34008KT 10SM SCT120 BKN220 09/M10 A3009 RMK AO2 SLP180 T00941100
KFLY 
24nm SE 
010435Z AUTO 36011KT 10SM CLR A3016 RMK AO2
TAF
KAFF 
17nm S 
302002Z 3020/0202 17012KT 9999 FEW150 SCT250 QNH3014INS WND 130V210 BECMG 3020/3021 16012G18KT 9999 SCT250 QNH3011INS BECMG 0100/0101 VRB06KT 9999 SCT250 QNH3011INS BECMG 0102/0103 04009KT 9999 SCT250 520109 QNH3012INS WND 350V120 ROTOR CONDS EXIST BECMG 0111/0112 VRB06KT 9999 FEW250 QNH3020INS BECMG 0116/0117 16010KT 9999 FEW250 QNH3023INS BECMG 0200/0201 VRB06KT 9999 FEW250 QNH3024INS TX18/0120Z TN01/0113Z LAST NO AMDS AFT 0100 NEXT 0112
KAPA 
19nm N 
010057Z 0101/0124 18010KT P6SM SCT110 BKN200 FM010400 VRB05KT P6SM SCT110 BKN200 FM010900 17008KT P6SM SCT200 BKN250 FM011700 29007KT P6SM SCT250
NOTAMs
Click for the latest NOTAMs
NOTAMs are issued by the DoD/FAA and will open in a separate window not controlled by AirNav.

 

 
 

Would you like to see your business listed on this page?

 If your business provides an interesting product or service to pilots, flight crews, aircraft, or users of the Perry Park Airport, you should consider listing it here.  To start the listing process, click on the button below
 
Add a business
 

Other Pages about Perry Park Airport

Update a link
 
Copyright © AirNav, LLC. All rights reserved. Privacy Policy  Contact